首页
METAR-TAF:

METAR-TAF

机场 :

特里布万国际机场

加德滿都, 尼泊尔

纬度: 27-42N, 经度: 085-22E, 海拔: 1337米

当前天气观测

该预报发布于1小时和1分钟前的19:50 UTC
风速5节,风向东北
温度 21°C
湿度 94%
气压 1010 hPa
能見度: 7000
少量云层高于1000英尺
散云层高于3000英尺
多云层高于10000英尺

METAR: VNKT 191950Z 04005KT 7000 FEW010 SCT030 BKN100 21/20 Q1010 NOSIG

时间: 02:36 (20:51 UTC)

预报

该预报发布于3小时和51分钟前的17:00 UTC
预报有效从19日的 18点(UTC)到 20日的 18点(UTC)
风速3节,风向南转南东
能見度: 7000
少量云层高于1000英尺
散云层高于3000英尺
多云层高于10000英尺
几率 40%
从 19日的 19点(UTC)到 20日的 01点(UTC)
能見度: 4000
少量云层高于2500英尺, 积雨云.
成为
从 20日的 00点(UTC)到 20日的 02点(UTC)
风速2节,风向多变
能見度: 4000
少量云层高于1000英尺
散云层高于3000英尺
多云层高于10000英尺
小雨
成为
从 20日的 04点(UTC)到 20日的 05点(UTC)
风速4节,风向东转东南
能見度: 7000
少量云层高于1500英尺
散云层高于10000英尺
几率 40%
从 20日的 06点(UTC)到 20日的 12点(UTC)
能見度: 4000
少量云层高于2500英尺
散云层高于3000英尺
多云层高于10000英尺
成为
从 20日的 07点(UTC)到 20日的 08点(UTC)
风速8节,风向西转西北
能見度: 8000
少量云层高于1500英尺
散云层高于3000英尺
多云层高于10000英尺
成为
从 20日的 14点(UTC)到 20日的 15点(UTC)
风速3节,风向多变
能見度: 6000
少量云层高于1000英尺
散云层高于3000英尺
多云层高于10000英尺

TAF: VNKT 191700Z 1918/2018 16003KT 7000 FEW010 SCT030 BKN100 PROB40 1919/2001 4000 -RA/SHRA FEW025CB BECMG 2000/2002 VRB02KT 4000 -RA FEW010 SCT030 BKN100 BECMG 2004/2005 12004KT 7000 FEW015 SCT100 PROB40 2006/2012 4000 -RA/SHRA FEW025 SCT030 BKN100 BECMG 2007/2008 29008KT 8000 FEW015 SCT030 BKN100 BECMG 2014/2015 VRB03KT 6000 FEW010 SCT030 BKN100

超过4000个机场的气象观测和天气预报(METAR&TAF报告)。

可查询的气象台以黄色和红色小点在地图上表示。

将鼠标移到小点上方,可查看气象台名称。

然后点击查看天气观测和预报。

如需切换地图:点击带黑十字的绿色按钮放大地图;点击带横线的绿色按钮缩小地图;或者点击绿色箭头查看邻近地区的地图。


METAR-TAF: